createdAt,value
2022-07-30T00:09:23.803Z,60.86
2022-07-30T00:19:31.285Z,61.06
2022-07-30T00:29:39.081Z,61.18
2022-07-30T00:39:52.132Z,61.34
2022-07-30T00:49:59.227Z,61.83
2022-07-30T01:00:08.645Z,61.68
2022-07-30T01:10:18.482Z,61.73
2022-07-30T01:20:29.906Z,61.52
2022-07-30T01:30:44.361Z,61.63
2022-07-30T01:40:53.247Z,61.74
2022-07-30T01:51:03.760Z,62.04
2022-07-30T02:01:11.474Z,62.15
2022-07-30T02:11:18.905Z,62.70
2022-07-30T02:21:34.045Z,62.76
2022-07-30T02:31:44.714Z,62.83
2022-07-30T02:41:53.958Z,63.24
2022-07-30T02:52:03.003Z,63.40
2022-07-30T03:02:14.654Z,63.41
2022-07-30T03:12:23.084Z,63.50
2022-07-30T03:22:33.142Z,63.41
2022-07-30T03:32:43.020Z,63.64
2022-07-30T03:42:51.126Z,64.04
2022-07-30T03:52:58.903Z,64.13
2022-07-30T04:03:06.190Z,64.18
2022-07-30T04:13:12.450Z,64.29
2022-07-30T04:23:20.025Z,64.35
2022-07-30T04:33:28.321Z,64.33
2022-07-30T04:43:35.420Z,64.49
2022-07-30T04:53:44.061Z,65.25
2022-07-30T05:03:54.232Z,65.03
2022-07-30T05:14:01.619Z,65.12
2022-07-30T05:24:09.723Z,65.14
2022-07-30T05:34:16.828Z,65.37
2022-07-30T05:44:24.377Z,65.05
2022-07-30T05:54:31.587Z,64.81
2022-07-30T06:04:38.941Z,63.90
2022-07-30T06:14:53.378Z,62.86
2022-07-30T06:25:00.485Z,61.66
2022-07-30T06:35:08.525Z,61.21
2022-07-30T06:45:15.526Z,61.38
2022-07-30T06:55:22.766Z,61.03
2022-07-30T07:05:29.292Z,61.34
2022-07-30T07:15:37.600Z,60.91
2022-07-30T07:25:45.088Z,60.19
2022-07-30T07:35:54.337Z,59.97
2022-07-30T07:46:01.702Z,60.47
2022-07-30T07:56:08.288Z,60.25
2022-07-30T08:06:16.282Z,60.14
2022-07-30T08:16:23.274Z,59.35
2022-07-30T08:26:30.418Z,58.79
2022-07-30T08:36:39.086Z,58.20
2022-07-30T08:46:48.187Z,57.40
2022-07-30T08:56:56.256Z,57.34
2022-07-30T09:07:04.983Z,57.00
2022-07-30T09:17:14.608Z,56.56
2022-07-30T09:27:21.767Z,56.70
2022-07-30T09:37:27.632Z,56.85
2022-07-30T09:47:37.485Z,56.92
2022-07-30T09:57:57.641Z,57.68
2022-07-30T10:08:16.256Z,57.70
2022-07-30T10:18:24.948Z,58.08
2022-07-30T10:28:38.414Z,57.52
2022-07-30T10:38:52.588Z,57.50
2022-07-30T10:49:11.701Z,57.93
2022-07-30T10:59:27.230Z,58.00
2022-07-30T11:09:42.738Z,58.15
2022-07-30T11:20:13.347Z,58.18
2022-07-30T11:30:32.799Z,58.53
2022-07-30T11:41:00.380Z,58.66
2022-07-30T11:51:07.078Z,58.94
2022-07-30T12:01:15.872Z,59.55
2022-07-30T12:11:23.014Z,60.05
2022-07-30T12:21:29.334Z,60.99
2022-07-30T12:31:38.429Z,61.96
2022-07-30T12:41:47.264Z,62.77
2022-07-30T12:52:00.250Z,63.54
2022-07-30T13:02:07.704Z,64.44
2022-07-30T13:12:15.343Z,65.63
2022-07-30T13:22:22.312Z,66.42
2022-07-30T13:32:29.600Z,67.18
2022-07-30T13:42:36.850Z,67.93
2022-07-30T13:52:44.121Z,68.64
2022-07-30T14:02:51.522Z,69.21
2022-07-30T14:13:00.082Z,69.59
2022-07-30T14:23:07.135Z,70.21
2022-07-30T14:33:14.537Z,70.78
2022-07-30T14:43:21.658Z,70.86
2022-07-30T14:53:28.967Z,71.41
2022-07-30T15:03:34.886Z,71.41
2022-07-30T15:13:50.338Z,71.92
2022-07-30T15:23:58.306Z,72.31
2022-07-30T15:34:04.783Z,72.66
2022-07-30T15:44:13.891Z,73.35
2022-07-30T15:54:22.220Z,74.44
2022-07-30T16:04:33.167Z,74.85
2022-07-30T16:14:40.395Z,75.27
2022-07-30T16:24:47.800Z,76.15
2022-07-30T16:34:54.920Z,76.50
2022-07-30T16:45:02.077Z,76.97
2022-07-30T16:55:10.709Z,78.03
2022-07-30T17:05:18.333Z,78.31
2022-07-30T17:15:32.724Z,78.29
2022-07-30T17:25:40.543Z,78.79
2022-07-30T17:35:47.721Z,78.75
2022-07-30T17:45:54.946Z,79.33
2022-07-30T17:56:01.963Z,80.06
2022-07-30T18:06:09.697Z,80.05
2022-07-30T18:16:17.246Z,80.23
2022-07-30T18:26:22.724Z,80.59
2022-07-30T18:36:30.044Z,80.46
2022-07-30T18:46:37.664Z,80.40
2022-07-30T18:56:44.768Z,80.35
2022-07-30T19:06:51.883Z,80.34
2022-07-30T19:16:59.230Z,80.10
2022-07-30T19:27:09.939Z,80.52
2022-07-30T19:37:19.542Z,80.46
2022-07-30T19:57:53.385Z,80.54
2022-07-30T20:07:59.842Z,80.58
2022-07-30T20:18:08.209Z,80.58
2022-07-30T20:28:14.751Z,80.80
2022-07-30T20:38:25.036Z,80.65
2022-07-30T20:48:35.191Z,80.96
2022-07-30T20:58:45.292Z,81.19
2022-07-30T21:08:56.605Z,81.33
2022-07-30T21:19:03.610Z,81.55
2022-07-30T21:29:10.495Z,82.06
2022-07-30T21:39:17.868Z,82.11
2022-07-30T21:49:24.950Z,82.07
2022-07-30T21:59:32.486Z,82.18
2022-07-30T22:09:40.356Z,82.06
2022-07-30T22:19:47.888Z,82.11
2022-07-30T22:29:55.357Z,82.11
2022-07-30T22:40:03.602Z,82.41
2022-07-30T22:50:14.888Z,82.27
2022-07-30T23:00:27.750Z,82.30
2022-07-30T23:10:36.759Z,82.62
2022-07-30T23:20:43.994Z,82.58
2022-07-30T23:30:50.963Z,82.76
2022-07-30T23:41:01.411Z,82.99
2022-07-30T23:51:08.705Z,83.06
